Nefterudovoz-29m — UIMI — position and weather

sailwx.info

Track history (hours):
 
Tides and Currents Weather Stations Pressure Air Temp Water Temp Dewpoint Dewpoint Depression Visibility Wind Speed Wind Dir Waves Ship Positions

Nefterudovoz-29m

Last reported at 2016-Mar-30 03:33 UTC. Time now 2016-May-07 00:27 UTC.
Position N 47°09' E 039°27'.
Warning: this ship's position is 37 days out of date.

Length 119 m; draft 2.9 m.

Type: Cargo ship. MMSI: 273345300.

Date/timePositionNaut miles runAvg speedWind from/ knotsBaromVisibWave heightAir tempDewpointWater temp
2016-Mar-30 03:33N 47°09' E 039°27'0 0.0
2016-Mar-30 02:31N 47°09' E 039°27'20 0.5
2016-Mar-28 13:31N 47°03' E 038°59'127 5.8
2016-Mar-27 15:33N 45°33' E 036°49'6 5.7
2016-Mar-27 14:33N 45°28' E 036°45'6 6.4
2016-Mar-27 13:33N 45°22' E 036°40'6 6.1
2016-Mar-27 12:34N 45°19' E 036°33'6 5.7
2016-Mar-27 11:33N 45°14' E 036°29'2 1.7
2016-Mar-27 10:33N 45°13' E 036°28'7 7.0
2016-Mar-27 09:33N 45°06' E 036°30'  
2016-Mar-22 13:32N 44°24' E 034°09'6 6.3
2016-Mar-22 12:33N 44°28' E 034°16'6 6.3
2016-Mar-22 11:33N 44°32' E 034°23'6 6.4
2016-Mar-22 10:33N 44°37' E 034°29'6 6.4
2016-Mar-22 09:33N 44°41' E 034°36'6 6.5
2016-Mar-22 08:33N 44°43' E 034°45'6 6.4
2016-Mar-22 07:33N 44°45' E 034°53'7 6.3
2016-Mar-22 06:24N 44°46' E 035°04'65 2.2
2016-Mar-21 01:13N 45°07' E 036°30'4 6.1
2016-Mar-21 00:33N 45°11' E 036°28'7 6.5
2016-Mar-20 23:33N 45°17' E 036°29'6 5.9
2016-Mar-20 22:33N 45°20' E 036°36'4 4.1
2016-Mar-20 21:33N 45°23' E 036°41'6 5.7
2016-Mar-20 20:33N 45°28' E 036°43'0 0.1
2016-Mar-20 19:33N 45°28' E 036°43'4 4.3
2016-Mar-20 18:33N 45°32' E 036°47'  
Track history (hours):
 
Tides and Currents Weather Stations Pressure Air Temp Water Temp Dewpoint Dewpoint Depression Visibility Wind Speed Wind Dir Waves Ship Positions

Nefterudovoz-29m

Last reported at 2016-Mar-30 03:33 UTC. Time now 2016-May-07 00:27 UTC.
Position N 47°09' E 039°27'.
Warning: this ship's position is 37 days out of date.

Length 119 m; draft 2.9 m.

Type: Cargo ship. MMSI: 273345300.

Date/timePositionNaut miles runAvg speedWind from/ knotsBaromVisibWave heightAir tempDewpointWater temp
2016-Mar-30 03:33N 47°09' E 039°27'0 0.0
2016-Mar-30 02:31N 47°09' E 039°27'20 0.5
2016-Mar-28 13:31N 47°03' E 038°59'127 5.8
2016-Mar-27 15:33N 45°33' E 036°49'6 5.7
2016-Mar-27 14:33N 45°28' E 036°45'6 6.4
2016-Mar-27 13:33N 45°22' E 036°40'6 6.1
2016-Mar-27 12:34N 45°19' E 036°33'6 5.7
2016-Mar-27 11:33N 45°14' E 036°29'2 1.7
2016-Mar-27 10:33N 45°13' E 036°28'7 7.0
2016-Mar-27 09:33N 45°06' E 036°30'  
2016-Mar-22 13:32N 44°24' E 034°09'6 6.3
2016-Mar-22 12:33N 44°28' E 034°16'6 6.3
2016-Mar-22 11:33N 44°32' E 034°23'6 6.4
2016-Mar-22 10:33N 44°37' E 034°29'6 6.4
2016-Mar-22 09:33N 44°41' E 034°36'6 6.5
2016-Mar-22 08:33N 44°43' E 034°45'6 6.4
2016-Mar-22 07:33N 44°45' E 034°53'7 6.3
2016-Mar-22 06:24N 44°46' E 035°04'65 2.2
2016-Mar-21 01:13N 45°07' E 036°30'4 6.1
2016-Mar-21 00:33N 45°11' E 036°28'7 6.5
2016-Mar-20 23:33N 45°17' E 036°29'6 5.9
2016-Mar-20 22:33N 45°20' E 036°36'4 4.1
2016-Mar-20 21:33N 45°23' E 036°41'6 5.7
2016-Mar-20 20:33N 45°28' E 036°43'0 0.1
2016-Mar-20 19:33N 45°28' E 036°43'4 4.3
2016-Mar-20 18:33N 45°32' E 036°47'  

Dump ship's entire track history